Time;durP1;ratioP1;P1;durP2;ratioP2;P2;SDS_P1;SDS_P2;PMS_P1;PMS_P2;Temp;Humidity;BMP_temperature;BMP_pressure;BME280_temperature;BME280_humidity;BME280_pressure;Samples;Min_cycle;Max_cycle;Signal;HPM_P1;HPM_P2
2021/12/16 00:07:14;;;;;;;36.97;18.73;;;9.70;99.90;;;;;;5116072;28;20508;-68
2021/12/16 00:09:51;;;;;;;30.80;18.97;;;9.70;99.90;;;;;;5116296;28;20535;-67
2021/12/16 00:29:59;;;;;;;33.00;18.80;;;9.70;99.90;;;;;;5053277;28;20439;-68
2021/12/16 00:32:44;;;;;;;31.60;18.57;;;9.70;99.90;;;;;;5110664;28;20460;-68
2021/12/16 00:35:12;;;;;;;34.37;20.30;;;9.70;99.90;;;;;;5115692;28;20886;-67
2021/12/16 00:37:39;;;;;;;32.53;18.60;;;9.70;99.90;;;;;;5115111;28;20480;-67
2021/12/16 00:40:08;;;;;;;33.67;20.67;;;9.60;99.90;;;;;;5115365;28;20489;-67
2021/12/16 00:42:44;;;;;;;36.50;19.63;;;9.60;99.90;;;;;;5115624;28;20931;-68
2021/12/16 00:45:38;;;;;;;36.90;19.77;;;9.60;99.90;;;;;;5115704;28;20747;-67
2021/12/16 00:48:23;;;;;;;29.97;17.60;;;9.60;99.90;;;;;;5115427;28;20447;-67
2021/12/16 00:56:19;;;;;;;38.47;21.03;;;9.50;99.90;;;;;;5115490;28;20545;-67
2021/12/16 00:58:51;;;;;;;38.13;19.20;;;9.50;99.90;;;;;;5115424;28;20452;-68
2021/12/16 01:01:34;;;;;;;37.53;19.93;;;9.40;99.90;;;;;;5115219;28;20437;-68
2021/12/16 01:04:28;;;;;;;40.70;21.93;;;9.40;99.90;;;;;;5115446;28;20437;-68
2021/12/16 01:07:14;;;;;;;44.77;23.10;;;9.30;99.90;;;;;;5115607;28;20448;-67
2021/12/16 01:34:41;;;;;;;39.90;22.57;;;8.80;99.90;;;;;;5118225;28;20420;-68
2021/12/16 01:37:42;;;;;;;47.53;23.47;;;8.80;99.90;;;;;;5119244;28;20499;-68
2021/12/16 01:40:36;;;;;;;49.83;23.30;;;8.80;99.90;;;;;;5118745;28;20479;-68
2021/12/16 01:46:16;;;;;;;54.03;24.07;;;8.80;99.90;;;;;;5119133;28;20486;-67
2021/12/16 01:49:09;;;;;;;52.80;23.10;;;8.80;99.90;;;;;;5119346;28;20437;-67
2021/12/16 01:51:52;;;;;;;43.77;22.07;;;8.80;99.90;;;;;;5118953;28;20567;-69
2021/12/16 01:57:14;;;;;;;47.37;22.60;;;8.70;99.90;;;;;;5118556;28;20796;-68
2021/12/16 01:59:44;;;;;;;43.23;21.90;;;8.70;99.90;;;;;;5118989;28;20436;-67
2021/12/16 02:02:18;;;;;;;47.47;20.40;;;8.70;99.90;;;;;;5118967;28;20455;-67
2021/12/16 02:05:08;;;;;;;42.13;22.07;;;8.70;99.90;;;;;;5118618;28;20478;-68
2021/12/16 02:07:53;;;;;;;43.17;19.33;;;8.70;99.90;;;;;;5118612;27;20439;-68
2021/12/16 02:10:28;;;;;;;36.60;18.63;;;8.80;99.90;;;;;;5118778;28;20759;-68
2021/12/16 02:13:12;;;;;;;31.77;17.80;;;8.80;99.90;;;;;;5120104;28;20767;-67
2021/12/16 02:29:43;;;;;;;21.93;14.60;;;8.90;99.90;;;;;;5118442;28;20488;-68
2021/12/16 02:32:15;;;;;;;21.50;13.13;;;8.90;99.90;;;;;;5118208;28;20441;-68
2021/12/16 02:34:58;;;;;;;21.17;14.57;;;8.90;99.90;;;;;;5118539;28;20444;-67
2021/12/16 02:37:30;;;;;;;26.00;13.03;;;8.90;99.90;;;;;;5117761;28;20456;-67
2021/12/16 02:39:57;;;;;;;19.83;12.00;;;8.90;99.90;;;;;;5118333;28;20448;-67
2021/12/16 02:42:35;;;;;;;20.37;12.33;;;9.00;99.90;;;;;;5117793;28;20467;-68
2021/12/16 02:50:31;;;;;;;19.93;10.83;;;9.00;99.90;;;;;;5117593;28;20474;-68
2021/12/16 02:52:59;;;;;;;19.93;11.87;;;9.10;99.90;;;;;;5118085;28;20440;-67
2021/12/16 02:55:26;;;;;;;22.77;11.70;;;9.10;99.90;;;;;;5118121;28;20924;-68
2021/12/16 02:57:59;;;;;;;20.60;11.20;;;9.10;99.90;;;;;;5118193;28;20480;-67
2021/12/16 03:00:27;;;;;;;14.27;9.90;;;9.10;99.90;;;;;;5118098;28;20441;-67
2021/12/16 03:02:54;;;;;;;15.90;10.20;;;9.10;99.90;;;;;;5118091;27;20475;-67
2021/12/16 03:05:22;;;;;;;20.30;10.20;;;9.10;99.90;;;;;;5117947;28;20452;-67
2021/12/16 03:07:50;;;;;;;15.07;10.20;;;9.10;99.90;;;;;;5117104;28;20547;-67
2021/12/16 03:10:58;;;;;;;17.97;10.73;;;9.10;99.90;;;;;;5117618;28;20457;-67
2021/12/16 03:13:27;;;;;;;12.87;9.80;;;9.10;99.90;;;;;;5117169;28;20904;-67
2021/12/16 03:16:06;;;;;;;18.53;9.73;;;9.10;99.90;;;;;;5117652;28;20501;-67
2021/12/16 03:18:41;;;;;;;13.30;9.37;;;9.10;99.90;;;;;;5117803;28;20540;-67
2021/12/16 03:21:16;;;;;;;19.40;10.20;;;9.20;99.90;;;;;;5117450;28;20480;-67
2021/12/16 03:24:00;;;;;;;18.10;9.33;;;9.20;99.90;;;;;;5117584;28;20444;-68
2021/12/16 03:30:01;;;;;;;15.13;8.93;;;9.20;99.90;;;;;;5116930;28;20482;-68
2021/12/16 03:35:31;;;;;;;17.40;9.87;;;9.20;99.90;;;;;;5035540;28;20451;-68
2021/12/16 03:38:02;;;;;;;18.57;9.67;;;9.20;99.90;;;;;;5101443;28;20978;-69
2021/12/16 03:40:30;;;;;;;14.83;9.90;;;9.10;99.90;;;;;;5117092;28;20437;-68
2021/12/16 03:43:01;;;;;;;15.33;9.67;;;9.10;99.90;;;;;;5117033;28;20832;-69
2021/12/16 03:48:18;;;;;;;13.40;9.43;;;9.20;99.90;;;;;;5116663;28;20424;-69
2021/12/16 03:50:45;;;;;;;14.13;9.43;;;9.10;99.90;;;;;;5116631;28;20476;-68
2021/12/16 03:53:14;;;;;;;14.00;9.20;;;9.10;99.90;;;;;;5116818;28;20464;-69
2021/12/16 03:55:41;;;;;;;13.60;10.00;;;9.10;99.90;;;;;;5116380;28;20467;-69
2021/12/16 03:58:09;;;;;;;16.33;10.63;;;9.20;99.90;;;;;;5116248;28;20480;-69
2021/12/16 04:00:41;;;;;;;17.40;9.53;;;9.20;99.90;;;;;;5116681;28;20517;-68
2021/12/16 04:03:09;;;;;;;15.40;9.87;;;9.20;99.90;;;;;;5116853;28;20440;-69
2021/12/16 04:05:36;;;;;;;15.53;9.57;;;9.20;99.90;;;;;;5116686;28;20456;-68
2021/12/16 04:08:03;;;;;;;17.13;9.10;;;9.20;99.90;;;;;;5116447;28;20502;-68
2021/12/16 04:10:35;;;;;;;13.20;9.30;;;9.20;99.90;;;;;;5116387;27;20463;-68
2021/12/16 04:13:04;;;;;;;15.30;9.50;;;9.20;99.90;;;;;;5116478;28;20513;-69
2021/12/16 04:15:33;;;;;;;12.97;8.53;;;9.20;99.90;;;;;;5116026;28;20560;-68
2021/12/16 04:18:00;;;;;;;12.93;8.80;;;9.20;99.90;;;;;;5116352;28;20476;-68
2021/12/16 04:20:27;;;;;;;14.70;9.90;;;9.20;99.90;;;;;;5116070;28;20471;-68
2021/12/16 04:22:55;;;;;;;15.50;9.50;;;9.20;99.90;;;;;;5116368;28;20471;-68
2021/12/16 04:25:27;;;;;;;18.27;9.40;;;9.20;99.90;;;;;;5115897;28;20483;-69
2021/12/16 04:27:59;;;;;;;15.87;9.20;;;9.10;99.90;;;;;;5115950;28;20445;-68
2021/12/16 04:30:27;;;;;;;11.87;8.87;;;9.10;99.90;;;;;;5116060;28;20468;-69
2021/12/16 04:32:55;;;;;;;15.07;9.13;;;9.10;99.90;;;;;;5115506;28;20456;-69
2021/12/16 04:35:22;;;;;;;15.47;9.07;;;9.10;99.90;;;;;;5116033;28;20460;-68
2021/12/16 04:37:50;;;;;;;15.17;9.17;;;9.20;99.90;;;;;;5115836;28;20476;-68
2021/12/16 04:40:18;;;;;;;11.37;9.10;;;9.20;99.90;;;;;;5116048;28;20513;-68
2021/12/16 04:42:47;;;;;;;13.80;8.90;;;9.20;99.90;;;;;;5118383;28;20461;-68
2021/12/16 04:45:17;;;;;;;13.60;9.03;;;9.20;99.90;;;;;;5117480;28;20550;-68
2021/12/16 04:47:44;;;;;;;10.57;8.40;;;9.20;99.90;;;;;;5115757;28;20763;-67
2021/12/16 04:50:13;;;;;;;14.90;8.60;;;9.20;99.90;;;;;;5115723;28;20456;-68
2021/12/16 04:52:41;;;;;;;12.73;9.77;;;9.20;99.90;;;;;;5115084;28;20537;-68
2021/12/16 04:55:10;;;;;;;12.97;9.17;;;9.20;99.90;;;;;;5115584;28;20464;-68
2021/12/16 04:57:37;;;;;;;16.73;11.00;;;9.10;99.90;;;;;;5115549;28;20487;-67
2021/12/16 05:00:09;;;;;;;15.43;10.10;;;9.10;99.90;;;;;;5115694;28;20457;-68
2021/12/16 05:02:37;;;;;;;17.80;10.40;;;9.10;99.90;;;;;;5116481;28;20509;-69
2021/12/16 05:05:04;;;;;;;19.00;10.40;;;9.00;99.90;;;;;;5115469;28;20456;-69
2021/12/16 05:07:32;;;;;;;15.30;10.50;;;9.00;99.90;;;;;;5114992;28;20452;-68
2021/12/16 05:10:06;;;;;;;19.80;10.60;;;9.00;99.90;;;;;;5114674;28;20528;-68
2021/12/16 05:12:37;;;;;;;18.10;10.57;;;9.00;99.90;;;;;;5115454;28;20535;-69
2021/12/16 05:15:08;;;;;;;18.77;10.10;;;9.00;99.90;;;;;;5115350;28;20501;-69
2021/12/16 05:17:39;;;;;;;18.40;11.53;;;9.00;99.90;;;;;;5115109;28;20487;-68
2021/12/16 05:20:10;;;;;;;16.43;11.10;;;8.90;99.90;;;;;;5115139;28;20444;-69
2021/12/16 05:25:35;;;;;;;23.17;10.93;;;8.90;99.90;;;;;;5114846;28;20447;-68
2021/12/16 05:28:02;;;;;;;18.90;11.57;;;8.90;99.90;;;;;;5115007;28;20440;-68
2021/12/16 05:30:29;;;;;;;18.87;11.07;;;8.80;99.90;;;;;;5115234;28;20464;-67
2021/12/16 05:32:55;;;;;;;19.50;12.00;;;8.80;99.90;;;;;;5114884;28;20453;-68
2021/12/16 05:35:24;;;;;;;17.40;11.77;;;8.60;99.90;;;;;;5114818;28;20539;-68
2021/12/16 05:37:52;;;;;;;19.93;11.70;;;8.50;99.90;;;;;;5114395;28;20990;-68
2021/12/16 05:40:23;;;;;;;19.83;12.20;;;8.50;99.90;;;;;;5114958;28;20553;-69
2021/12/16 05:42:51;;;;;;;22.83;12.80;;;8.40;99.90;;;;;;5114850;28;20857;-68
2021/12/16 05:45:18;;;;;;;24.00;13.50;;;8.40;99.90;;;;;;5115694;28;20819;-68
2021/12/16 05:47:45;;;;;;;21.73;13.57;;;8.30;99.90;;;;;;5115381;28;20464;-69
2021/12/16 05:50:13;;;;;;;26.53;14.03;;;8.30;99.90;;;;;;5115361;28;20936;-69
2021/12/16 05:52:40;;;;;;;24.87;13.80;;;8.30;99.90;;;;;;5115663;28;20514;-69
2021/12/16 05:55:10;;;;;;;25.50;13.63;;;8.30;99.90;;;;;;5115198;28;20461;-70
2021/12/16 05:57:38;;;;;;;20.97;13.00;;;8.30;99.90;;;;;;5115338;28;20576;-69
2021/12/16 06:00:09;;;;;;;24.23;15.50;;;8.30;99.90;;;;;;5116243;28;20465;-68
2021/12/16 06:02:36;;;;;;;28.40;13.73;;;8.30;99.90;;;;;;5115313;28;20441;-68
2021/12/16 06:05:03;;;;;;;21.80;14.00;;;8.20;99.90;;;;;;5115141;28;20456;-69
2021/12/16 06:07:30;;;;;;;24.10;14.50;;;8.20;99.90;;;;;;5115057;28;20460;-70
2021/12/16 06:09:57;;;;;;;23.37;13.30;;;8.10;99.90;;;;;;5114330;28;20476;-68
2021/12/16 06:12:26;;;;;;;28.03;13.87;;;8.10;99.90;;;;;;5114710;28;20920;-68
2021/12/16 06:15:11;;;;;;;25.27;14.47;;;8.10;99.90;;;;;;5114645;28;20560;-68
2021/12/16 06:28:36;;;;;;;26.90;14.37;;;8.20;99.90;;;;;;5117974;28;20794;-68
2021/12/16 06:31:05;;;;;;;27.07;14.33;;;8.20;99.90;;;;;;5118219;28;20437;-69
2021/12/16 06:33:32;;;;;;;26.20;14.90;;;8.20;99.90;;;;;;5118267;28;20452;-68
2021/12/16 06:35:59;;;;;;;24.03;13.50;;;8.20;99.90;;;;;;5118215;27;20452;-68
2021/12/16 06:38:26;;;;;;;28.80;14.03;;;8.30;99.90;;;;;;5117941;28;20492;-69
2021/12/16 06:40:54;;;;;;;30.87;13.80;;;8.30;99.90;;;;;;5117954;28;20467;-69
2021/12/16 06:43:22;;;;;;;23.80;12.93;;;8.30;99.90;;;;;;5117996;28;20551;-69
2021/12/16 06:45:52;;;;;;;25.47;13.43;;;8.30;99.90;;;;;;5117810;28;20533;-68
2021/12/16 06:48:25;;;;;;;25.57;13.50;;;8.30;99.90;;;;;;5117516;28;20883;-68
2021/12/16 06:50:55;;;;;;;24.87;13.10;;;8.30;99.90;;;;;;5117147;28;20480;-69
2021/12/16 06:53:28;;;;;;;25.40;13.17;;;8.30;99.90;;;;;;5117354;28;20739;-69
2021/12/16 06:56:04;;;;;;;27.30;14.63;;;8.30;99.90;;;;;;5117420;28;20519;-69
2021/12/16 06:58:36;;;;;;;21.03;12.33;;;8.40;99.90;;;;;;5117544;28;20463;-68
2021/12/16 07:01:14;;;;;;;24.00;13.27;;;8.40;99.90;;;;;;5117273;28;20447;-69
2021/12/16 07:03:47;;;;;;;23.77;13.10;;;8.40;99.90;;;;;;5117298;28;20440;-69
2021/12/16 07:06:17;;;;;;;20.80;13.00;;;8.40;99.90;;;;;;5117271;28;20441;-69
2021/12/16 07:08:46;;;;;;;23.03;13.93;;;8.40;99.90;;;;;;5117677;28;20432;-69
2021/12/16 07:11:14;;;;;;;23.27;12.70;;;8.40;99.90;;;;;;5117820;28;20468;-69
2021/12/16 07:13:44;;;;;;;20.97;13.17;;;8.40;99.90;;;;;;5117398;28;20464;-69
2021/12/16 07:16:14;;;;;;;20.93;12.27;;;8.40;99.90;;;;;;5117374;28;20436;-69
2021/12/16 07:18:41;;;;;;;29.33;13.63;;;8.50;99.90;;;;;;5116903;28;20489;-69
2021/12/16 07:21:09;;;;;;;22.37;12.60;;;8.50;99.90;;;;;;5117273;28;20482;-68
2021/12/16 07:23:35;;;;;;;20.30;13.23;;;8.50;99.90;;;;;;5117402;28;20517;-69
2021/12/16 07:26:02;;;;;;;24.20;12.83;;;8.50;99.90;;;;;;5117796;28;20461;-69
2021/12/16 07:28:29;;;;;;;25.17;12.43;;;8.50;99.90;;;;;;5117158;28;20463;-68
2021/12/16 07:30:56;;;;;;;21.47;12.60;;;8.50;99.90;;;;;;5115840;28;20456;-69
2021/12/16 07:33:25;;;;;;;24.27;12.57;;;8.50;99.90;;;;;;5116981;27;20833;-69
2021/12/16 07:35:52;;;;;;;24.73;12.63;;;8.50;99.90;;;;;;5116854;28;20452;-69
2021/12/16 07:38:19;;;;;;;21.77;12.70;;;8.50;99.90;;;;;;5117424;28;20468;-73
2021/12/16 07:40:48;;;;;;;24.80;12.97;;;8.50;99.90;;;;;;5116846;28;20460;-68
2021/12/16 07:43:42;;;;;;;21.97;12.23;;;8.50;99.90;;;;;;5116672;27;20746;-69
2021/12/16 07:46:11;;;;;;;21.80;12.33;;;8.50;99.90;;;;;;5116650;28;20805;-69
2021/12/16 07:48:39;;;;;;;22.10;13.10;;;8.60;99.90;;;;;;5116545;28;20462;-68
2021/12/16 07:51:08;;;;;;;22.13;12.90;;;8.60;99.90;;;;;;5116602;28;20883;-69
2021/12/16 07:53:35;;;;;;;21.90;11.90;;;8.60;99.90;;;;;;5117705;28;20463;-69
2021/12/16 07:56:02;;;;;;;19.60;12.00;;;8.60;99.90;;;;;;5117140;28;20460;-69
2021/12/16 07:58:29;;;;;;;19.77;10.87;;;8.60;99.90;;;;;;5117233;27;20944;-69
2021/12/16 08:00:56;;;;;;;28.43;13.50;;;8.60;99.90;;;;;;5116480;28;20452;-69
2021/12/16 08:03:25;;;;;;;25.37;13.13;;;8.60;99.90;;;;;;5116156;28;20544;-69
2021/12/16 08:05:59;;;;;;;23.43;12.23;;;8.60;99.90;;;;;;5116372;28;20517;-68
2021/12/16 08:08:26;;;;;;;24.93;12.07;;;8.60;99.90;;;;;;5117099;28;20877;-68
2021/12/16 08:10:54;;;;;;;20.40;12.30;;;8.60;99.90;;;;;;5116539;28;20453;-68
2021/12/16 08:13:21;;;;;;;19.80;13.20;;;8.60;99.90;;;;;;5116837;28;20452;-69
2021/12/16 08:15:48;;;;;;;22.73;12.53;;;8.60;99.90;;;;;;5118296;28;20546;-69
2021/12/16 08:18:15;;;;;;;18.53;11.20;;;8.60;99.90;;;;;;5118062;28;20929;-68
2021/12/16 08:20:42;;;;;;;21.47;12.43;;;8.60;99.90;;;;;;5116539;28;20452;-70
2021/12/16 08:23:10;;;;;;;18.87;11.17;;;8.60;99.90;;;;;;5116140;28;20797;-68
2021/12/16 08:25:38;;;;;;;20.37;10.60;;;8.60;99.90;;;;;;5115767;28;20460;-70
2021/12/16 08:28:07;;;;;;;20.70;11.60;;;8.60;99.90;;;;;;5115958;28;20467;-69
2021/12/16 08:30:37;;;;;;;21.70;13.07;;;8.70;99.90;;;;;;5115606;28;20479;-70
2021/12/16 08:33:08;;;;;;;17.27;11.10;;;8.70;99.90;;;;;;5116024;28;20456;-69
2021/12/16 08:35:40;;;;;;;21.37;11.83;;;8.70;99.90;;;;;;5115770;28;20437;-69
2021/12/16 08:38:07;;;;;;;19.90;10.87;;;8.70;99.90;;;;;;5115470;28;20451;-70
2021/12/16 08:40:36;;;;;;;17.20;11.17;;;8.80;99.90;;;;;;5116260;28;20452;-70
2021/12/16 08:43:03;;;;;;;17.20;11.30;;;8.80;99.90;;;;;;5116252;28;20453;-69
2021/12/16 08:45:33;;;;;;;19.20;11.10;;;8.80;99.90;;;;;;5116546;28;20460;-70
2021/12/16 08:48:00;;;;;;;17.37;11.00;;;8.80;99.90;;;;;;5116348;28;20483;-69
2021/12/16 08:50:30;;;;;;;19.63;11.87;;;8.80;99.90;;;;;;5115860;28;20471;-70
2021/12/16 08:52:59;;;;;;;19.97;11.60;;;8.90;99.90;;;;;;5116437;27;20441;-69
2021/12/16 08:55:27;;;;;;;15.07;9.20;;;8.80;99.90;;;;;;5116142;28;20861;-69
2021/12/16 08:57:56;;;;;;;17.20;10.80;;;8.80;99.90;;;;;;5116070;28;20452;-69
2021/12/16 09:00:26;;;;;;;20.13;10.27;;;8.80;99.90;;;;;;5115764;28;20974;-70
2021/12/16 09:02:53;;;;;;;22.83;10.87;;;8.80;99.90;;;;;;5115558;28;20456;-69
2021/12/16 09:05:20;;;;;;;13.77;9.50;;;8.90;99.90;;;;;;5115698;28;20908;-71
2021/12/16 09:07:48;;;;;;;20.10;11.40;;;8.90;99.90;;;;;;5115415;28;20511;-68
2021/12/16 09:10:21;;;;;;;17.97;11.47;;;8.90;99.90;;;;;;5115500;28;20520;-70
2021/12/16 09:13:02;;;;;;;20.23;10.57;;;8.90;99.90;;;;;;5116108;28;20464;-69
2021/12/16 09:15:33;;;;;;;23.63;10.97;;;9.00;99.90;;;;;;5115387;28;20442;-70
2021/12/16 09:18:01;;;;;;;19.67;9.23;;;9.00;99.90;;;;;;5115263;28;20448;-70
2021/12/16 09:20:27;;;;;;;21.30;10.20;;;9.10;99.90;;;;;;5114628;28;20488;-68
2021/12/16 09:22:55;;;;;;;14.07;8.70;;;9.10;99.90;;;;;;5114477;28;20917;-68
2021/12/16 09:25:22;;;;;;;22.20;10.50;;;9.00;99.90;;;;;;5114805;28;20459;-68
2021/12/16 09:27:49;;;;;;;19.53;11.07;;;9.10;99.90;;;;;;5115169;28;20467;-68
2021/12/16 09:30:20;;;;;;;15.33;10.23;;;9.10;99.90;;;;;;5114856;28;20837;-69
2021/12/16 09:32:51;;;;;;;19.63;10.03;;;9.10;99.90;;;;;;5115152;28;20429;-68
2021/12/16 09:35:19;;;;;;;17.60;9.90;;;9.10;99.90;;;;;;5114750;28;20444;-68
2021/12/16 09:37:46;;;;;;;14.17;10.17;;;9.20;99.90;;;;;;5114784;28;20521;-68
2021/12/16 09:40:16;;;;;;;19.00;10.23;;;9.20;99.90;;;;;;5115048;28;20480;-69
2021/12/16 09:42:43;;;;;;;14.37;9.17;;;9.30;99.90;;;;;;5114852;28;20548;-69
2021/12/16 09:45:12;;;;;;;15.63;9.50;;;9.30;99.90;;;;;;5114796;28;20467;-67
2021/12/16 09:47:39;;;;;;;18.40;9.50;;;9.40;99.90;;;;;;5114459;28;20456;-69
2021/12/16 09:50:11;;;;;;;13.60;9.40;;;9.40;99.90;;;;;;5114987;28;20448;-69
2021/12/16 09:52:38;;;;;;;18.30;9.40;;;9.40;99.90;;;;;;5114699;28;20491;-69
2021/12/16 09:55:06;;;;;;;14.87;9.77;;;9.40;99.90;;;;;;5116856;28;20909;-69
2021/12/16 09:57:33;;;;;;;19.73;10.03;;;9.40;99.90;;;;;;5118954;28;20460;-68
2021/12/16 10:00:01;;;;;;;16.47;9.87;;;9.40;99.90;;;;;;5119125;28;20480;-68
2021/12/16 10:02:28;;;;;;;14.50;9.60;;;9.40;99.90;;;;;;5118488;28;20456;-68
2021/12/16 10:04:55;;;;;;;13.30;9.27;;;9.40;99.90;;;;;;5118780;28;20449;-67
2021/12/16 10:07:27;;;;;;;16.63;9.53;;;9.40;99.90;;;;;;5118729;28;20463;-68
2021/12/16 10:09:56;;;;;;;14.80;9.30;;;9.50;99.90;;;;;;5118756;28;20447;-69
2021/12/16 10:12:28;;;;;;;16.27;9.00;;;9.50;99.90;;;;;;5118911;28;20536;-67
2021/12/16 10:15:06;;;;;;;11.90;8.00;;;9.50;99.90;;;;;;5118810;28;20436;-67
2021/12/16 10:17:36;;;;;;;11.83;8.17;;;9.50;99.90;;;;;;5118500;28;20463;-68
2021/12/16 10:20:13;;;;;;;17.80;8.70;;;9.50;99.90;;;;;;5119192;28;20476;-68
2021/12/16 10:22:43;;;;;;;13.53;9.23;;;9.60;99.90;;;;;;5118247;28;20446;-67
2021/12/16 10:25:19;;;;;;;17.27;10.17;;;9.50;99.90;;;;;;5118495;28;20517;-69
2021/12/16 10:27:57;;;;;;;13.03;8.57;;;9.60;99.90;;;;;;5118450;28;20466;-69
2021/12/16 10:30:28;;;;;;;12.67;8.93;;;9.60;99.90;;;;;;5118383;28;20443;-68
2021/12/16 10:32:55;;;;;;;12.37;9.43;;;9.60;99.90;;;;;;5118681;27;20760;-68
2021/12/16 10:35:29;;;;;;;12.00;8.33;;;9.60;99.90;;;;;;5118317;28;20456;-68
2021/12/16 10:38:06;;;;;;;13.13;7.80;;;9.70;99.90;;;;;;5118400;28;20436;-68
2021/12/16 10:40:43;;;;;;;9.73;7.90;;;9.70;99.90;;;;;;5118237;28;20460;-68
2021/12/16 10:43:13;;;;;;;11.80;7.67;;;9.70;99.90;;;;;;5118138;28;20432;-69
2021/12/16 10:45:43;;;;;;;12.00;7.17;;;9.70;99.90;;;;;;5118048;28;20885;-68
2021/12/16 10:48:23;;;;;;;10.20;8.20;;;9.70;99.90;;;;;;5118039;28;20467;-69
2021/12/16 10:51:01;;;;;;;11.07;7.60;;;9.70;99.90;;;;;;5117733;28;20475;-68
2021/12/16 10:53:54;;;;;;;11.20;8.03;;;9.70;99.90;;;;;;5117780;28;20441;-68
2021/12/16 10:56:25;;;;;;;9.10;6.10;;;9.80;99.90;;;;;;5117791;28;20908;-67
2021/12/16 10:58:55;;;;;;;9.43;6.40;;;9.80;99.90;;;;;;5117366;28;20444;-68
2021/12/16 11:01:51;;;;;;;10.77;6.90;;;9.80;99.90;;;;;;5117456;28;20444;-68
2021/12/16 11:04:26;;;;;;;8.60;6.00;;;9.90;99.90;;;;;;5099602;28;20874;-69
2021/12/16 11:06:56;;;;;;;8.73;5.97;;;9.90;99.90;;;;;;5115972;28;20429;-68
2021/12/16 11:09:44;;;;;;;8.67;6.23;;;10.00;99.90;;;;;;5117358;28;20448;-69
2021/12/16 11:12:19;;;;;;;8.57;5.40;;;10.00;99.90;;;;;;5106797;28;20460;-69
2021/12/16 11:14:49;;;;;;;7.57;5.67;;;10.00;99.90;;;;;;5117425;28;20452;-69
2021/12/16 11:17:19;;;;;;;10.87;5.80;;;10.00;99.90;;;;;;5117413;28;20452;-69
2021/12/16 11:19:50;;;;;;;6.80;4.80;;;10.10;99.90;;;;;;5116896;28;20473;-68
2021/12/16 11:22:20;;;;;;;11.77;5.63;;;10.20;99.90;;;;;;5117410;28;20441;-69
2021/12/16 11:24:48;;;;;;;5.27;4.50;;;10.20;99.90;;;;;;5116955;28;20451;-69
2021/12/16 11:27:28;;;;;;;6.77;4.90;;;10.20;99.90;;;;;;5117187;28;20471;-70
2021/12/16 11:29:56;;;;;;;5.93;4.70;;;10.30;99.90;;;;;;5117556;28;20449;-69
2021/12/16 11:32:40;;;;;;;9.60;4.97;;;10.40;99.90;;;;;;5117277;28;20482;-69
2021/12/16 11:35:33;;;;;;;7.20;4.63;;;10.50;99.90;;;;;;5117424;27;20436;-69
2021/12/16 11:38:04;;;;;;;6.27;4.20;;;10.60;99.90;;;;;;5117104;28;20449;-69
2021/12/16 11:40:52;;;;;;;6.80;3.97;;;10.60;99.90;;;;;;5116712;28;20956;-70
2021/12/16 11:43:29;;;;;;;6.13;4.47;;;10.50;99.90;;;;;;5117449;28;20440;-69
2021/12/16 11:45:56;;;;;;;5.87;5.07;;;10.50;99.90;;;;;;5117350;28;20437;-69
2021/12/16 11:48:29;;;;;;;5.33;4.83;;;10.50;99.90;;;;;;5117163;28;20791;-69
2021/12/16 11:51:05;;;;;;;6.83;4.70;;;10.50;99.90;;;;;;5116815;28;20472;-70
2021/12/16 11:53:36;;;;;;;7.60;4.70;;;10.50;99.90;;;;;;5117798;28;20509;-70
2021/12/16 11:56:05;;;;;;;9.17;4.50;;;10.60;99.90;;;;;;5117430;28;20433;-69
2021/12/16 11:58:32;;;;;;;7.93;4.13;;;10.60;99.90;;;;;;5118400;28;20459;-69
2021/12/16 12:00:59;;;;;;;7.40;3.60;;;10.60;99.90;;;;;;5118343;28;20579;-69
2021/12/16 12:03:34;;;;;;;6.10;3.93;;;10.60;99.90;;;;;;5116695;27;20484;-70
2021/12/16 12:06:01;;;;;;;5.67;4.23;;;10.70;99.90;;;;;;5117162;28;20443;-69
2021/12/16 12:08:31;;;;;;;6.20;4.13;;;10.70;99.90;;;;;;5116639;28;20453;-68
2021/12/16 12:11:03;;;;;;;4.60;4.20;;;10.60;99.90;;;;;;5117730;28;20780;-69
2021/12/16 12:13:37;;;;;;;6.27;4.03;;;10.70;99.90;;;;;;5118177;28;20460;-69
2021/12/16 12:16:07;;;;;;;5.73;3.87;;;10.90;99.90;;;;;;5118159;28;20452;-70
2021/12/16 12:18:38;;;;;;;4.20;3.50;;;11.00;99.90;;;;;;5118173;28;20480;-70
2021/12/16 12:21:27;;;;;;;4.27;3.57;;;11.30;99.90;;;;;;5118044;28;20464;-70
2021/12/16 12:23:56;;;;;;;5.33;3.70;;;12.20;99.90;;;;;;5117348;28;20448;-71
2021/12/16 12:26:23;;;;;;;4.70;3.10;;;13.20;99.90;;;;;;5117152;28;20549;-71
2021/12/16 12:28:54;;;;;;;3.30;2.67;;;13.40;99.90;;;;;;5116715;28;20470;-70
2021/12/16 12:31:24;;;;;;;5.13;3.57;;;13.10;99.90;;;;;;5116896;28;20437;-70
2021/12/16 12:33:51;;;;;;;4.53;3.60;;;12.90;99.90;;;;;;5116523;28;20916;-71
2021/12/16 12:36:20;;;;;;;5.57;3.57;;;12.70;99.90;;;;;;5116206;28;20475;-70
2021/12/16 12:38:47;;;;;;;6.60;4.20;;;12.40;99.90;;;;;;5116369;28;20453;-69
2021/12/16 12:41:14;;;;;;;6.13;5.20;;;12.40;99.90;;;;;;5116445;28;20484;-71
2021/12/16 12:43:41;;;;;;;6.00;3.00;;;12.70;99.90;;;;;;5116177;28;20484;-71
2021/12/16 12:46:12;;;;;;;3.40;3.10;;;13.20;99.90;;;;;;5115877;28;20456;-70
2021/12/16 12:48:40;;;;;;;3.33;2.97;;;13.50;99.90;;;;;;5117438;28;20440;-71
2021/12/16 12:51:08;;;;;;;3.63;2.83;;;13.30;99.90;;;;;;5119075;28;20476;-70
2021/12/16 12:53:38;;;;;;;4.67;3.00;;;13.70;99.90;;;;;;5117695;28;20463;-70
2021/12/16 12:56:14;;;;;;;5.77;2.90;;;14.20;99.90;;;;;;5117052;28;20425;-70
2021/12/16 12:58:58;;;;;;;3.93;2.90;;;14.60;99.90;;;;;;5117226;28;20741;-70
2021/12/16 13:01:39;;;;;;;2.57;2.20;;;15.10;99.90;;;;;;5115858;28;20587;-71
2021/12/16 13:04:10;;;;;;;3.70;2.07;;;15.50;99.90;;;;;;5115193;28;20477;-72
2021/12/16 13:06:56;;;;;;;4.00;2.50;;;15.90;99.90;;;;;;5115256;28;20458;-71
2021/12/16 13:09:29;;;;;;;3.67;2.40;;;16.40;99.90;;;;;;5114636;28;20931;-70
2021/12/16 13:11:57;;;;;;;3.87;2.63;;;17.00;99.90;;;;;;5115433;28;20885;-72
2021/12/16 13:14:42;;;;;;;4.77;2.50;;;17.20;99.90;;;;;;5115093;28;20448;-70
2021/12/16 13:17:43;;;;;;;3.43;2.13;;;17.40;99.90;;;;;;5115389;28;20516;-69
2021/12/16 13:28:39;;;;;;;4.20;2.80;;;16.40;99.90;;;;;;5115249;28;20423;-68
2021/12/16 13:31:28;;;;;;;3.70;2.53;;;14.90;99.90;;;;;;5114932;28;20475;-69
2021/12/16 13:33:59;;;;;;;5.27;2.73;;;13.80;99.90;;;;;;5114867;28;20984;-68
2021/12/16 13:36:45;;;;;;;4.40;2.70;;;13.00;99.90;;;;;;5115066;28;20436;-69
2021/12/16 13:39:15;;;;;;;6.37;2.30;;;12.60;99.90;;;;;;5115519;28;20523;-69
2021/12/16 13:42:01;;;;;;;5.03;2.67;;;12.10;99.90;;;;;;5118222;28;20482;-69
2021/12/16 13:45:01;;;;;;;6.23;3.17;;;11.80;99.90;;;;;;5114839;28;20436;-68
2021/12/16 14:02:59;;;;;;;7.53;2.67;;;10.70;99.90;;;;;;5092559;27;20527;-69
2021/12/16 14:05:44;;;;;;;5.27;3.13;;;10.60;99.90;;;;;;5092405;28;20485;-69
2021/12/16 14:08:13;;;;;;;3.40;2.70;;;10.60;99.90;;;;;;5092508;28;20824;-68
2021/12/16 14:10:54;;;;;;;5.60;2.90;;;10.60;99.90;;;;;;5092608;28;20446;-68
2021/12/16 14:16:30;;;;;;;7.70;2.70;;;10.90;99.90;;;;;;5092209;28;20897;-69
2021/12/16 14:25:00;;;;;;;4.10;2.73;;;10.70;99.90;;;;;;5091860;28;20762;-69
2021/12/16 14:38:59;;;;;;;5.57;3.07;;;10.00;99.90;;;;;;5067705;28;20898;-69
2021/12/16 14:41:43;;;;;;;7.93;3.10;;;9.90;99.90;;;;;;5093157;28;20465;-69
2021/12/16 14:45:12;;;;;;;12.63;3.20;;;9.80;99.90;;;;;;5092334;28;20437;-68
2021/12/16 14:47:17;;;;;;;5.90;3.60;;;9.70;99.90;;;;;;5092886;28;20449;-69
2021/12/16 14:49:47;;;;;;;9.63;3.70;;;9.60;99.90;;;;;;5091892;28;20437;-70
2021/12/16 14:52:17;;;;;;;7.83;3.47;;;9.50;99.90;;;;;;5091883;28;20438;-68
2021/12/16 14:54:50;;;;;;;11.40;7.80;;;9.40;99.90;;;;;;5091706;28;20442;-68
2021/12/16 14:57:22;;;;;;;5.90;4.00;;;9.40;99.90;;;;;;5091552;28;20975;-68
2021/12/16 14:59:49;;;;;;;3.43;2.80;;;9.30;99.90;;;;;;5091338;28;20437;-69
2021/12/16 15:02:17;;;;;;;10.17;2.97;;;9.30;99.90;;;;;;5090745;28;20945;-69
2021/12/16 15:04:44;;;;;;;3.20;2.67;;;9.30;99.90;;;;;;5090937;28;20457;-67
2021/12/16 15:07:12;;;;;;;7.43;3.27;;;9.30;99.90;;;;;;5094234;28;20457;-69
2021/12/16 15:09:41;;;;;;;5.80;2.93;;;9.20;99.90;;;;;;5091125;28;20515;-69
2021/12/16 15:12:14;;;;;;;6.97;3.23;;;9.10;99.90;;;;;;5087443;28;20550;-68
2021/12/16 15:15:01;;;;;;;7.93;3.20;;;9.10;99.90;;;;;;5078210;28;20450;-69
2021/12/16 15:31:38;;;;;;;6.50;2.87;;;9.10;99.90;;;;;;5081067;28;20802;-69
2021/12/16 15:32:28;;;;;;;9.30;3.23;;;8.90;99.90;;;;;;5077462;28;20421;-68
2021/12/16 15:37:31;;;;;;;4.80;3.20;;;8.80;99.90;;;;;;5076920;28;20426;-68
2021/12/16 15:40:11;;;;;;;7.40;3.63;;;8.80;99.90;;;;;;5077005;28;20448;-68
2021/12/16 15:42:49;;;;;;;6.73;3.10;;;8.80;99.90;;;;;;5076709;28;20458;-68
2021/12/16 15:45:22;;;;;;;9.87;3.30;;;8.70;99.90;;;;;;5076965;28;20779;-68
2021/12/16 15:47:52;;;;;;;6.70;3.43;;;8.70;99.90;;;;;;5077180;28;20447;-68
2021/12/16 15:50:23;;;;;;;11.10;4.50;;;8.60;99.90;;;;;;5076954;28;20502;-68